Time;durP1;ratioP1;P1;durP2;ratioP2;P2;SDS_P1;SDS_P2;PMS_P1;PMS_P2;Temp;Humidity;BMP_temperature;BMP_pressure;BME280_temperature;BME280_humidity;BME280_pressure;Samples;Min_cycle;Max_cycle;Signal;HPM_P1;HPM_P2
2022/12/02 00:01:08;;;;;;;2.35;0.60;;;;;;;;;;5051865;28;20092;-41
2022/12/02 00:03:35;;;;;;;0.80;0.80;;;;;;;;;;5053210;28;20037;-41
2022/12/02 00:06:00;;;;;;;0.85;0.85;;;;;;;;;;5053125;28;20108;-41
2022/12/02 00:08:30;;;;;;;0.50;0.50;;;;;;;;;;5051979;28;20108;-41
2022/12/02 00:10:56;;;;;;;1.02;0.65;;;;;;;;;;5052901;28;20422;-41
2022/12/02 00:13:30;;;;;;;0.47;0.47;;;;;;;;;;5052704;28;20025;-42
2022/12/02 00:16:00;;;;;;;0.80;0.60;;;;;;;;;;5052711;28;20029;-41
2022/12/02 00:18:26;;;;;;;1.55;0.90;;;;;;;;;;5052987;28;20032;-42
2022/12/02 00:20:52;;;;;;;0.40;0.40;;;;;;;;;;5052574;28;20029;-42
2022/12/02 00:23:17;;;;;;;0.40;0.40;;;;;;;;;;5052613;28;20425;-41
2022/12/02 00:25:45;;;;;;;0.43;0.43;;;;;;;;;;5052508;28;20029;-41
2022/12/02 00:28:10;;;;;;;0.45;0.45;;;;;;;;;;5052488;28;20459;-42
2022/12/02 00:30:36;;;;;;;0.55;0.50;;;;;;;;;;5052463;28;20070;-41
2022/12/02 00:33:02;;;;;;;0.82;0.50;;;;;;;;;;5052633;28;20477;-42
2022/12/02 00:35:27;;;;;;;1.00;0.60;;;;;;;;;;5052414;28;20033;-41
2022/12/02 00:37:52;;;;;;;0.50;0.50;;;;;;;;;;5052290;28;20017;-42
2022/12/02 00:40:18;;;;;;;0.38;0.38;;;;;;;;;;5052665;28;20029;-41
2022/12/02 00:42:43;;;;;;;0.68;0.38;;;;;;;;;;5050892;28;20025;-41
2022/12/02 00:47:54;;;;;;;1.00;0.68;;;;;;;;;;5052057;28;20025;-42
2022/12/02 00:50:19;;;;;;;0.70;0.70;;;;;;;;;;5050920;28;20028;-42
2022/12/02 00:52:45;;;;;;;1.80;1.00;;;;;;;;;;5051945;28;20506;-42
2022/12/02 00:55:10;;;;;;;0.50;0.50;;;;;;;;;;5033906;28;20494;-41
2022/12/02 00:57:36;;;;;;;0.77;0.47;;;;;;;;;;5050638;28;20120;-42
2022/12/02 01:00:01;;;;;;;1.10;0.77;;;;;;;;;;5052176;28;20112;-41
2022/12/02 01:02:26;;;;;;;0.60;0.60;;;;;;;;;;5052164;28;20043;-41
2022/12/02 01:04:52;;;;;;;0.52;0.50;;;;;;;;;;5051755;28;20538;-42
2022/12/02 01:07:17;;;;;;;0.70;0.65;;;;;;;;;;5050662;28;20029;-41
2022/12/02 01:09:42;;;;;;;0.68;0.68;;;;;;;;;;5050492;28;20437;-41
2022/12/02 01:12:08;;;;;;;1.23;0.80;;;;;;;;;;5051837;28;20068;-41
2022/12/02 01:14:33;;;;;;;0.95;0.55;;;;;;;;;;5051278;28;20056;-42
2022/12/02 01:16:58;;;;;;;1.25;0.88;;;;;;;;;;5051658;28;20040;-42
2022/12/02 01:19:24;;;;;;;0.60;0.60;;;;;;;;;;5050348;28;20029;-41
2022/12/02 01:21:49;;;;;;;1.20;0.82;;;;;;;;;;5050330;28;20032;-42
2022/12/02 01:24:14;;;;;;;0.52;0.52;;;;;;;;;;5051454;28;20522;-41
2022/12/02 01:26:40;;;;;;;0.50;0.50;;;;;;;;;;5051584;28;20078;-42
2022/12/02 01:29:06;;;;;;;0.65;0.60;;;;;;;;;;5051461;28;20513;-41
2022/12/02 01:31:32;;;;;;;0.95;0.65;;;;;;;;;;5050125;28;20029;-42
2022/12/02 01:33:57;;;;;;;0.70;0.70;;;;;;;;;;5051324;28;20032;-43
2022/12/02 01:36:22;;;;;;;0.30;0.30;;;;;;;;;;5050169;28;20032;-42
2022/12/02 01:38:48;;;;;;;0.63;0.40;;;;;;;;;;5051247;28;20025;-41
2022/12/02 01:41:13;;;;;;;0.40;0.40;;;;;;;;;;5051411;28;20032;-41
2022/12/02 01:43:39;;;;;;;0.70;0.50;;;;;;;;;;5050015;28;20032;-41
2022/12/02 01:46:04;;;;;;;1.13;0.60;;;;;;;;;;5049902;28;20040;-41
2022/12/02 01:48:30;;;;;;;0.20;0.20;;;;;;;;;;5051374;28;20168;-41
2022/12/02 01:50:56;;;;;;;1.13;0.57;;;;;;;;;;5051156;28;20116;-41
2022/12/02 01:53:21;;;;;;;0.30;0.30;;;;;;;;;;5049693;28;20041;-42
2022/12/02 01:55:47;;;;;;;1.45;1.23;;;;;;;;;;5050003;28;20064;-42
2022/12/02 01:58:12;;;;;;;1.27;0.90;;;;;;;;;;5051256;28;20039;-42
2022/12/02 02:00:38;;;;;;;1.33;1.10;;;;;;;;;;5049866;28;20033;-41
2022/12/02 02:03:03;;;;;;;0.68;0.60;;;;;;;;;;5049717;28;20017;-42
2022/12/02 02:05:30;;;;;;;0.60;0.60;;;;;;;;;;5049898;28;20032;-42
2022/12/02 02:07:58;;;;;;;0.70;0.70;;;;;;;;;;5049767;28;20029;-41
2022/12/02 02:10:25;;;;;;;1.75;0.88;;;;;;;;;;5051088;28;20476;-41
2022/12/02 02:12:51;;;;;;;2.65;0.70;;;;;;;;;;5049628;28;20047;-41
2022/12/02 02:15:18;;;;;;;6.65;0.85;;;;;;;;;;5049779;28;20475;-41
2022/12/02 02:17:43;;;;;;;0.52;0.47;;;;;;;;;;5049749;28;20025;-42
2022/12/02 02:20:11;;;;;;;0.70;0.70;;;;;;;;;;5049729;28;20083;-42
2022/12/02 02:22:42;;;;;;;0.40;0.40;;;;;;;;;;5049690;28;20040;-41
2022/12/02 02:25:08;;;;;;;0.40;0.40;;;;;;;;;;5051137;28;20383;-42
2022/12/02 02:27:35;;;;;;;1.00;0.63;;;;;;;;;;5053137;28;20467;-42
2022/12/02 02:30:00;;;;;;;0.32;0.32;;;;;;;;;;5054830;28;20064;-42
2022/12/02 02:32:26;;;;;;;0.80;0.80;;;;;;;;;;5054841;28;20378;-41
2022/12/02 02:34:51;;;;;;;0.40;0.40;;;;;;;;;;5054573;28;20061;-41
2022/12/02 02:37:16;;;;;;;0.75;0.75;;;;;;;;;;5054723;28;20086;-41
2022/12/02 02:39:42;;;;;;;0.40;0.40;;;;;;;;;;5053417;28;20025;-41
2022/12/02 02:42:07;;;;;;;0.40;0.40;;;;;;;;;;5054603;28;20671;-41
2022/12/02 02:44:33;;;;;;;1.70;0.60;;;;;;;;;;5053210;28;20565;-41
2022/12/02 02:46:58;;;;;;;0.40;0.40;;;;;;;;;;5054400;28;20017;-42
2022/12/02 02:49:25;;;;;;;0.40;0.40;;;;;;;;;;5053159;28;20029;-41
2022/12/02 02:51:50;;;;;;;0.60;0.60;;;;;;;;;;5053049;28;20082;-41
2022/12/02 02:54:16;;;;;;;0.65;0.65;;;;;;;;;;5054133;28;20045;-42
2022/12/02 02:56:42;;;;;;;0.75;0.40;;;;;;;;;;5054306;28;20040;-41
2022/12/02 02:59:11;;;;;;;0.85;0.68;;;;;;;;;;5054569;28;20072;-41
2022/12/02 03:01:37;;;;;;;0.73;0.73;;;;;;;;;;5052996;28;20132;-41
2022/12/02 03:04:06;;;;;;;0.73;0.50;;;;;;;;;;5052675;28;20483;-41
2022/12/02 03:06:32;;;;;;;1.15;1.00;;;;;;;;;;5052851;28;20517;-41
2022/12/02 03:08:58;;;;;;;1.02;0.50;;;;;;;;;;5052803;28;20465;-41
2022/12/02 03:11:25;;;;;;;0.90;0.85;;;;;;;;;;5054008;28;20105;-41
2022/12/02 03:13:50;;;;;;;1.02;0.90;;;;;;;;;;5053884;28;20309;-41
2022/12/02 03:16:17;;;;;;;1.73;0.98;;;;;;;;;;5054212;28;20036;-41
2022/12/02 03:18:43;;;;;;;1.08;0.73;;;;;;;;;;5053760;28;20087;-41
2022/12/02 03:21:09;;;;;;;1.15;0.90;;;;;;;;;;5054161;28;20071;-42
2022/12/02 03:23:35;;;;;;;0.70;0.70;;;;;;;;;;5052425;28;20060;-41
2022/12/02 03:26:00;;;;;;;1.00;0.52;;;;;;;;;;5053685;28;20021;-41
2022/12/02 03:28:26;;;;;;;0.55;0.55;;;;;;;;;;5053804;28;20021;-41
2022/12/02 03:30:51;;;;;;;1.23;0.80;;;;;;;;;;5053546;28;20024;-42
2022/12/02 03:33:17;;;;;;;0.50;0.50;;;;;;;;;;5053801;28;20116;-42
2022/12/02 03:35:42;;;;;;;1.05;0.70;;;;;;;;;;5053577;28;20021;-41
2022/12/02 03:38:08;;;;;;;1.45;0.60;;;;;;;;;;5053166;28;20047;-41
2022/12/02 03:40:33;;;;;;;2.13;0.80;;;;;;;;;;5053502;28;20024;-42
2022/12/02 03:42:59;;;;;;;0.68;0.68;;;;;;;;;;5053344;28;20040;-41
2022/12/02 03:45:24;;;;;;;0.88;0.80;;;;;;;;;;5053319;28;20033;-41
2022/12/02 03:47:50;;;;;;;0.85;0.75;;;;;;;;;;5053257;28;20075;-41
2022/12/02 03:50:16;;;;;;;0.95;0.90;;;;;;;;;;5053576;28;20031;-43
2022/12/02 03:52:41;;;;;;;0.77;0.77;;;;;;;;;;5053524;28;20025;-42
2022/12/02 03:55:07;;;;;;;0.98;0.68;;;;;;;;;;5053030;28;20102;-41
2022/12/02 03:57:33;;;;;;;0.98;0.80;;;;;;;;;;5053171;28;20452;-41
2022/12/02 03:59:58;;;;;;;0.82;0.60;;;;;;;;;;5053598;28;20036;-41
2022/12/02 04:02:24;;;;;;;0.60;0.60;;;;;;;;;;5053021;28;20056;-41
2022/12/02 04:04:49;;;;;;;0.68;0.50;;;;;;;;;;5052864;28;20032;-41
2022/12/02 04:07:15;;;;;;;0.80;0.80;;;;;;;;;;5052963;28;20095;-41
2022/12/02 04:09:40;;;;;;;1.05;0.90;;;;;;;;;;5051752;28;20435;-41
2022/12/02 04:12:06;;;;;;;0.75;0.70;;;;;;;;;;5053155;28;20159;-41
2022/12/02 04:14:31;;;;;;;2.20;0.63;;;;;;;;;;5052996;28;20628;-42
2022/12/02 04:16:56;;;;;;;1.75;0.98;;;;;;;;;;5053003;28;20419;-41
2022/12/02 04:19:22;;;;;;;0.98;0.82;;;;;;;;;;5052730;28;20025;-41
2022/12/02 04:21:47;;;;;;;1.35;1.25;;;;;;;;;;5052604;28;20060;-42
2022/12/02 04:24:12;;;;;;;0.80;0.80;;;;;;;;;;5052600;28;20047;-43
2022/12/02 04:26:38;;;;;;;1.75;1.10;;;;;;;;;;5052653;28;20021;-41
2022/12/02 04:29:04;;;;;;;0.80;0.75;;;;;;;;;;5052728;28;20024;-41
2022/12/02 04:31:30;;;;;;;1.38;0.80;;;;;;;;;;5052828;28;20564;-41
2022/12/02 04:33:55;;;;;;;1.73;1.15;;;;;;;;;;5051071;28;20078;-42
2022/12/02 04:36:20;;;;;;;0.25;0.25;;;;;;;;;;5052433;28;20473;-41
2022/12/02 04:38:45;;;;;;;1.05;0.60;;;;;;;;;;5052275;28;20413;-41
2022/12/02 04:41:11;;;;;;;0.80;0.75;;;;;;;;;;5052369;28;20043;-42
2022/12/02 04:43:36;;;;;;;0.63;0.60;;;;;;;;;;5052418;28;20029;-41
2022/12/02 04:46:01;;;;;;;0.60;0.60;;;;;;;;;;5052158;28;20541;-42
2022/12/02 04:48:27;;;;;;;0.65;0.65;;;;;;;;;;5051588;28;20013;-41
2022/12/02 04:50:52;;;;;;;0.95;0.82;;;;;;;;;;5052046;28;20060;-41
2022/12/02 04:53:17;;;;;;;1.23;1.10;;;;;;;;;;5051940;28;20041;-42
2022/12/02 04:55:45;;;;;;;0.85;0.82;;;;;;;;;;5052135;28;20499;-41
2022/12/02 04:58:10;;;;;;;0.70;0.57;;;;;;;;;;5051935;28;20064;-42
2022/12/02 05:00:36;;;;;;;2.25;1.23;;;;;;;;;;5050737;28;20060;-41
2022/12/02 05:03:01;;;;;;;1.35;0.63;;;;;;;;;;5051872;28;20017;-41
2022/12/02 05:05:27;;;;;;;0.77;0.77;;;;;;;;;;5051971;28;20075;-41
2022/12/02 05:07:52;;;;;;;1.25;1.15;;;;;;;;;;5052088;28;20075;-41
2022/12/02 05:10:17;;;;;;;0.73;0.73;;;;;;;;;;5051798;28;20033;-41
2022/12/02 05:12:43;;;;;;;0.93;0.52;;;;;;;;;;5051723;28;20070;-41
2022/12/02 05:15:08;;;;;;;0.98;0.90;;;;;;;;;;5051684;28;20029;-41
2022/12/02 05:17:34;;;;;;;1.90;0.95;;;;;;;;;;5051930;28;20104;-41
2022/12/02 05:19:59;;;;;;;1.55;0.70;;;;;;;;;;5051576;28;20108;-41
2022/12/02 05:22:24;;;;;;;1.40;1.02;;;;;;;;;;5051922;28;20426;-41
2022/12/02 05:24:50;;;;;;;1.08;0.65;;;;;;;;;;5051392;28;20198;-41
2022/12/02 05:27:15;;;;;;;0.95;0.73;;;;;;;;;;5050224;28;20025;-41
2022/12/02 05:29:41;;;;;;;1.63;0.55;;;;;;;;;;5051738;28;20051;-41
2022/12/02 05:32:06;;;;;;;0.30;0.30;;;;;;;;;;5051383;28;20025;-41
2022/12/02 05:34:32;;;;;;;0.57;0.52;;;;;;;;;;5050164;28;20028;-41
2022/12/02 05:36:58;;;;;;;2.33;1.15;;;;;;;;;;5051339;28;20075;-41
2022/12/02 05:39:23;;;;;;;2.35;1.10;;;;;;;;;;5051474;28;20028;-42
2022/12/02 05:41:48;;;;;;;1.60;1.13;;;;;;;;;;5051203;28;20024;-41
2022/12/02 05:44:21;;;;;;;0.40;0.40;;;;;;;;;;5051314;28;20044;-41
2022/12/02 05:46:47;;;;;;;0.73;0.73;;;;;;;;;;5051172;28;20502;-41
2022/12/02 05:49:23;;;;;;;1.02;0.88;;;;;;;;;;5051524;28;20029;-42
2022/12/02 05:51:59;;;;;;;0.75;0.75;;;;;;;;;;5051266;28;20025;-42
2022/12/02 05:54:26;;;;;;;0.98;0.90;;;;;;;;;;5051053;28;20135;-41
2022/12/02 05:56:51;;;;;;;2.58;1.00;;;;;;;;;;5051119;28;20029;-41
2022/12/02 05:59:19;;;;;;;0.77;0.77;;;;;;;;;;5051199;28;20029;-45
2022/12/02 06:01:49;;;;;;;2.08;0.90;;;;;;;;;;5055451;28;20099;-42
2022/12/02 06:04:15;;;;;;;2.25;1.30;;;;;;;;;;5055415;28;20033;-41
2022/12/02 06:06:41;;;;;;;0.45;0.45;;;;;;;;;;5055603;28;20063;-41
2022/12/02 06:09:14;;;;;;;0.73;0.73;;;;;;;;;;5055133;28;20476;-41
2022/12/02 06:11:39;;;;;;;1.00;0.60;;;;;;;;;;5055418;28;20089;-41
2022/12/02 06:14:09;;;;;;;0.93;0.52;;;;;;;;;;5053706;28;20029;-41
2022/12/02 06:16:35;;;;;;;0.90;0.88;;;;;;;;;;5055235;28;20025;-41
2022/12/02 06:19:01;;;;;;;0.77;0.73;;;;;;;;;;5055273;28;20028;-41
2022/12/02 06:21:26;;;;;;;2.00;0.73;;;;;;;;;;5055235;28;20517;-41
2022/12/02 06:23:54;;;;;;;1.40;1.20;;;;;;;;;;5054741;28;20029;-41
2022/12/02 06:26:20;;;;;;;1.15;0.93;;;;;;;;;;5055204;28;20075;-41
2022/12/02 06:28:48;;;;;;;0.77;0.77;;;;;;;;;;5054866;28;20032;-41
2022/12/02 06:31:36;;;;;;;0.70;0.70;;;;;;;;;;5055293;28;20174;-42
2022/12/02 06:34:19;;;;;;;1.27;1.00;;;;;;;;;;5054113;28;20056;-41
2022/12/02 06:36:44;;;;;;;0.60;0.60;;;;;;;;;;5054928;28;20127;-41
2022/12/02 06:39:20;;;;;;;1.38;1.27;;;;;;;;;;5054920;28;20113;-41
2022/12/02 06:41:46;;;;;;;0.65;0.55;;;;;;;;;;5054654;28;20035;-41
2022/12/02 06:46:59;;;;;;;0.60;0.60;;;;;;;;;;5053234;28;20025;-41
2022/12/02 06:49:29;;;;;;;1.33;0.88;;;;;;;;;;5054589;28;20472;-42
2022/12/02 06:51:55;;;;;;;0.98;0.95;;;;;;;;;;5054261;28;20021;-41
2022/12/02 06:54:22;;;;;;;1.73;1.38;;;;;;;;;;5054352;28;20056;-41
2022/12/02 06:56:49;;;;;;;1.38;0.93;;;;;;;;;;5053153;28;20045;-41
2022/12/02 06:59:16;;;;;;;0.50;0.50;;;;;;;;;;5054433;28;20024;-41
2022/12/02 07:01:42;;;;;;;1.55;0.95;;;;;;;;;;5054268;28;20210;-41
2022/12/02 07:04:07;;;;;;;1.35;0.50;;;;;;;;;;5053938;28;20044;-41
2022/12/02 07:06:34;;;;;;;1.15;1.05;;;;;;;;;;5054384;28;20357;-41
2022/12/02 07:09:02;;;;;;;0.90;0.88;;;;;;;;;;5054084;28;20021;-43
2022/12/02 07:14:20;;;;;;;0.90;0.77;;;;;;;;;;5052752;28;20029;-41
2022/12/02 07:16:47;;;;;;;1.52;1.05;;;;;;;;;;5053974;28;20427;-41
2022/12/02 07:19:15;;;;;;;2.65;0.73;;;;;;;;;;5052712;28;20025;-41
2022/12/02 07:21:41;;;;;;;0.73;0.73;;;;;;;;;;5053855;28;20037;-41
2022/12/02 07:24:09;;;;;;;1.17;0.90;;;;;;;;;;5053624;28;20075;-41
2022/12/02 07:26:35;;;;;;;0.68;0.68;;;;;;;;;;5052533;28;20079;-41
2022/12/02 07:29:01;;;;;;;0.75;0.75;;;;;;;;;;5053600;28;20021;-41
2022/12/02 07:31:29;;;;;;;0.30;0.30;;;;;;;;;;5053823;28;20029;-41
2022/12/02 07:33:54;;;;;;;1.13;0.77;;;;;;;;;;5053678;28;20421;-41
2022/12/02 07:36:20;;;;;;;1.13;0.85;;;;;;;;;;5052281;28;20033;-41
2022/12/02 07:38:46;;;;;;;0.55;0.55;;;;;;;;;;5052223;28;20029;-41
2022/12/02 07:41:14;;;;;;;0.70;0.70;;;;;;;;;;5053327;28;20036;-41
2022/12/02 07:43:40;;;;;;;1.02;0.68;;;;;;;;;;5053433;28;20032;-41
2022/12/02 07:46:05;;;;;;;1.70;1.13;;;;;;;;;;5053269;28;20459;-41
2022/12/02 07:48:30;;;;;;;1.90;0.60;;;;;;;;;;5053410;28;20046;-41
2022/12/02 07:50:56;;;;;;;2.47;0.68;;;;;;;;;;5053479;28;20033;-41
2022/12/02 07:53:21;;;;;;;0.60;0.60;;;;;;;;;;5053327;28;20377;-41
2022/12/02 07:55:46;;;;;;;1.67;1.33;;;;;;;;;;5053583;28;20068;-41
2022/12/02 07:58:12;;;;;;;1.02;0.80;;;;;;;;;;5053369;28;20412;-41
2022/12/02 08:00:37;;;;;;;0.50;0.50;;;;;;;;;;5053469;28;20112;-41
2022/12/02 08:03:02;;;;;;;0.77;0.60;;;;;;;;;;5052953;28;20388;-41
2022/12/02 08:05:28;;;;;;;1.02;0.73;;;;;;;;;;5053238;28;20049;-41
2022/12/02 08:07:53;;;;;;;0.95;0.73;;;;;;;;;;5053243;28;20030;-41
2022/12/02 08:10:19;;;;;;;1.55;0.90;;;;;;;;;;5052960;28;20033;-42
2022/12/02 08:12:45;;;;;;;1.20;0.93;;;;;;;;;;5051713;28;20029;-41
2022/12/02 08:15:11;;;;;;;1.55;1.08;;;;;;;;;;5052764;28;20036;-41
2022/12/02 08:17:37;;;;;;;0.95;0.82;;;;;;;;;;5053034;28;20021;-41
2022/12/02 08:20:04;;;;;;;1.23;1.00;;;;;;;;;;5052683;28;20028;-41
2022/12/02 08:22:30;;;;;;;2.35;1.10;;;;;;;;;;5051468;28;20653;-41
2022/12/02 08:24:55;;;;;;;0.70;0.70;;;;;;;;;;5051728;28;20120;-45
2022/12/02 08:27:21;;;;;;;1.13;0.80;;;;;;;;;;5052667;28;20021;-41
2022/12/02 08:29:48;;;;;;;2.15;0.98;;;;;;;;;;5052563;28;20067;-41
2022/12/02 08:32:14;;;;;;;0.80;0.70;;;;;;;;;;5052741;28;20040;-41
2022/12/02 08:34:40;;;;;;;1.40;0.70;;;;;;;;;;5052805;28;20045;-41
2022/12/02 08:37:05;;;;;;;0.73;0.70;;;;;;;;;;5052393;28;20019;-42
2022/12/02 08:39:30;;;;;;;1.38;1.27;;;;;;;;;;5052680;28;20419;-41
2022/12/02 08:41:56;;;;;;;1.38;1.10;;;;;;;;;;5052495;28;20095;-41
2022/12/02 08:44:21;;;;;;;1.55;0.90;;;;;;;;;;5052475;28;20074;-41
2022/12/02 08:46:46;;;;;;;0.80;0.80;;;;;;;;;;5052532;28;20021;-41
2022/12/02 08:49:12;;;;;;;0.77;0.77;;;;;;;;;;5052135;28;20518;-41
2022/12/02 08:51:37;;;;;;;2.05;1.42;;;;;;;;;;5052478;28;20063;-42
2022/12/02 08:54:03;;;;;;;0.70;0.60;;;;;;;;;;5051937;28;20041;-41
2022/12/02 08:56:28;;;;;;;1.20;1.10;;;;;;;;;;5052374;28;20434;-41
2022/12/02 08:58:54;;;;;;;0.57;0.57;;;;;;;;;;5051908;28;20124;-41
2022/12/02 09:01:19;;;;;;;0.80;0.80;;;;;;;;;;5052236;28;20033;-41
2022/12/02 09:03:45;;;;;;;0.60;0.60;;;;;;;;;;5051818;28;20075;-41
2022/12/02 09:06:10;;;;;;;1.13;1.02;;;;;;;;;;5051973;28;20028;-43
2022/12/02 09:08:36;;;;;;;1.52;0.98;;;;;;;;;;5051859;28;20044;-42
2022/12/02 09:11:01;;;;;;;0.43;0.43;;;;;;;;;;5050514;28;20151;-41
2022/12/02 09:13:27;;;;;;;1.05;0.95;;;;;;;;;;5051695;28;20510;-42
2022/12/02 09:15:52;;;;;;;0.95;0.95;;;;;;;;;;5051952;28;20387;-41
2022/12/02 09:18:18;;;;;;;1.50;1.10;;;;;;;;;;5052007;28;20108;-41
2022/12/02 09:20:43;;;;;;;2.13;1.20;;;;;;;;;;5051708;28;20024;-41
2022/12/02 09:23:09;;;;;;;1.38;0.93;;;;;;;;;;5051583;28;20040;-41
2022/12/02 09:25:34;;;;;;;1.85;0.98;;;;;;;;;;5051799;28;20452;-42
2022/12/02 09:28:00;;;;;;;1.65;1.25;;;;;;;;;;5051485;28;20056;-41
2022/12/02 09:30:25;;;;;;;1.50;1.10;;;;;;;;;;5051837;28;20021;-41
2022/12/02 09:32:50;;;;;;;1.05;0.95;;;;;;;;;;5051410;28;20025;-41
2022/12/02 09:35:16;;;;;;;0.88;0.80;;;;;;;;;;5051140;28;20021;-41
2022/12/02 09:37:41;;;;;;;0.52;0.52;;;;;;;;;;5050563;28;20033;-41
2022/12/02 09:40:07;;;;;;;0.80;0.80;;;;;;;;;;5051390;28;20442;-41
2022/12/02 09:42:33;;;;;;;0.73;0.73;;;;;;;;;;5051367;28;20040;-41
2022/12/02 09:44:58;;;;;;;1.48;1.10;;;;;;;;;;5051207;28;20025;-41
2022/12/02 09:47:24;;;;;;;2.88;1.15;;;;;;;;;;5051628;28;20021;-41
2022/12/02 09:49:50;;;;;;;1.30;0.85;;;;;;;;;;5051298;28;20372;-41
2022/12/02 09:52:18;;;;;;;0.93;0.93;;;;;;;;;;5051199;28;20395;-42
2022/12/02 09:54:43;;;;;;;1.05;0.80;;;;;;;;;;5051155;28;20068;-41
2022/12/02 09:57:15;;;;;;;0.60;0.60;;;;;;;;;;5070295;28;20469;-41
2022/12/02 09:59:41;;;;;;;1.10;0.77;;;;;;;;;;5071568;28;20037;-41
2022/12/02 10:02:30;;;;;;;0.93;0.80;;;;;;;;;;5069987;28;20029;-41
2022/12/02 10:04:57;;;;;;;1.60;1.05;;;;;;;;;;5065405;28;20052;-43
2022/12/02 10:07:23;;;;;;;1.23;1.00;;;;;;;;;;5071226;28;20505;-42
2022/12/02 10:09:48;;;;;;;1.63;1.15;;;;;;;;;;5071507;28;20115;-41
2022/12/02 10:12:14;;;;;;;1.50;1.27;;;;;;;;;;5071064;28;20016;-41
2022/12/02 10:14:47;;;;;;;0.95;0.88;;;;;;;;;;5071061;28;20052;-41
2022/12/02 10:17:17;;;;;;;2.03;1.00;;;;;;;;;;5069606;28;20379;-41
2022/12/02 10:19:43;;;;;;;1.20;1.10;;;;;;;;;;5071045;28;20473;-41
2022/12/02 10:22:16;;;;;;;1.10;0.70;;;;;;;;;;5069638;28;20032;-42
2022/12/02 10:24:41;;;;;;;1.30;1.00;;;;;;;;;;5070813;28;20052;-41
2022/12/02 10:27:07;;;;;;;1.02;0.82;;;;;;;;;;5069681;28;20027;-41
2022/12/02 10:29:33;;;;;;;1.85;1.30;;;;;;;;;;5071276;28;20035;-41
2022/12/02 10:32:19;;;;;;;2.00;1.05;;;;;;;;;;5070858;28;20013;-41
2022/12/02 10:34:45;;;;;;;0.88;0.70;;;;;;;;;;5070910;28;20035;-41
2022/12/02 10:37:24;;;;;;;1.10;0.70;;;;;;;;;;5052875;28;20687;-41
2022/12/02 10:40:06;;;;;;;0.85;0.73;;;;;;;;;;5071049;28;20029;-41
2022/12/02 10:42:31;;;;;;;0.90;0.80;;;;;;;;;;5070845;28;20036;-41
2022/12/02 10:45:09;;;;;;;1.02;0.93;;;;;;;;;;5070911;28;20033;-41
2022/12/02 10:47:35;;;;;;;0.85;0.70;;;;;;;;;;5072935;28;20146;-41
2022/12/02 10:50:01;;;;;;;1.75;1.08;;;;;;;;;;5074359;28;20562;-41
2022/12/02 10:52:26;;;;;;;1.17;0.95;;;;;;;;;;5074431;28;20028;-41
2022/12/02 10:54:53;;;;;;;1.92;0.93;;;;;;;;;;5074157;28;20040;-41
2022/12/02 10:57:23;;;;;;;1.88;1.10;;;;;;;;;;5074388;28;20743;-41
2022/12/02 10:59:49;;;;;;;0.70;0.70;;;;;;;;;;5074584;28;20111;-43
2022/12/02 11:02:42;;;;;;;2.30;1.25;;;;;;;;;;5074083;28;20519;-41
2022/12/02 11:05:26;;;;;;;3.03;1.05;;;;;;;;;;5072526;28;20109;-41
2022/12/02 11:07:54;;;;;;;2.25;1.25;;;;;;;;;;5074219;28;20028;-41
2022/12/02 11:10:21;;;;;;;0.80;0.80;;;;;;;;;;5074136;28;20020;-41
2022/12/02 11:12:46;;;;;;;1.20;0.82;;;;;;;;;;5074334;28;20040;-41
2022/12/02 11:15:31;;;;;;;1.70;1.10;;;;;;;;;;5074112;28;20025;-41
2022/12/02 11:17:56;;;;;;;1.33;0.90;;;;;;;;;;5073997;28;20040;-41
2022/12/02 11:20:33;;;;;;;1.33;0.80;;;;;;;;;;5074311;28;20020;-41
2022/12/02 11:22:59;;;;;;;1.13;1.02;;;;;;;;;;5073992;28;20418;-41
2022/12/02 11:25:42;;;;;;;1.30;1.20;;;;;;;;;;5073742;28;20039;-41
2022/12/02 11:28:11;;;;;;;1.98;1.15;;;;;;;;;;5073715;28;20040;-41
2022/12/02 11:30:38;;;;;;;1.40;0.85;;;;;;;;;;5073771;28;20020;-42
2022/12/02 11:33:08;;;;;;;1.33;0.75;;;;;;;;;;5073869;28;20039;-41
2022/12/02 11:35:52;;;;;;;1.70;1.40;;;;;;;;;;5073850;28;20048;-41
2022/12/02 11:38:18;;;;;;;1.05;0.82;;;;;;;;;;5073864;28;20047;-41
2022/12/02 11:40:44;;;;;;;1.85;1.60;;;;;;;;;;5073556;28;20020;-41
2022/12/02 11:43:45;;;;;;;1.05;0.90;;;;;;;;;;5073919;28;20081;-41
2022/12/02 11:46:11;;;;;;;0.60;0.60;;;;;;;;;;5031006;28;20064;-41
2022/12/02 11:48:44;;;;;;;0.88;0.60;;;;;;;;;;5064853;28;20036;-41
2022/12/02 11:51:26;;;;;;;1.92;1.35;;;;;;;;;;5073397;28;20060;-41
2022/12/02 11:53:52;;;;;;;1.50;1.10;;;;;;;;;;5073189;28;20482;-41
2022/12/02 11:56:17;;;;;;;1.10;0.77;;;;;;;;;;5071984;28;20047;-41
2022/12/02 11:58:43;;;;;;;0.70;0.70;;;;;;;;;;5072938;28;20070;-42
2022/12/02 12:01:17;;;;;;;1.20;1.15;;;;;;;;;;5073081;28;20035;-41
2022/12/02 12:03:43;;;;;;;0.95;0.88;;;;;;;;;;5072931;28;20016;-41
2022/12/02 12:06:16;;;;;;;1.58;1.27;;;;;;;;;;5071702;28;20036;-41
2022/12/02 12:09:02;;;;;;;0.88;0.88;;;;;;;;;;5073099;28;20383;-41
2022/12/02 12:11:33;;;;;;;0.50;0.50;;;;;;;;;;5072586;28;20649;-41
2022/12/02 12:14:11;;;;;;;1.00;0.90;;;;;;;;;;5072853;28;20052;-41
2022/12/02 12:16:41;;;;;;;1.42;0.98;;;;;;;;;;5073081;28;20028;-41
2022/12/02 12:19:13;;;;;;;0.65;0.60;;;;;;;;;;5072675;28;20032;-41
2022/12/02 12:21:49;;;;;;;0.40;0.40;;;;;;;;;;5072741;28;20032;-41
2022/12/02 12:24:19;;;;;;;1.02;0.93;;;;;;;;;;5072589;28;20406;-41
2022/12/02 12:26:55;;;;;;;5.45;0.85;;;;;;;;;;5072584;28;20060;-41
2022/12/02 12:29:22;;;;;;;1.73;1.05;;;;;;;;;;5072582;28;20104;-41
2022/12/02 12:31:48;;;;;;;1.38;1.02;;;;;;;;;;5072546;28;20024;-41
2022/12/02 12:34:16;;;;;;;0.65;0.65;;;;;;;;;;5072444;28;20028;-41
2022/12/02 12:36:43;;;;;;;1.33;0.70;;;;;;;;;;5071249;28;20478;-41
2022/12/02 12:39:09;;;;;;;1.10;0.90;;;;;;;;;;5072323;28;20035;-41
2022/12/02 12:41:35;;;;;;;1.67;1.08;;;;;;;;;;5072329;28;20408;-41
2022/12/02 12:44:00;;;;;;;0.80;0.80;;;;;;;;;;5072110;28;20046;-41
2022/12/02 12:46:26;;;;;;;0.98;0.93;;;;;;;;;;5072468;28;20020;-41
2022/12/02 12:48:52;;;;;;;1.20;0.93;;;;;;;;;;5072386;28;20029;-41
2022/12/02 12:51:18;;;;;;;1.23;1.13;;;;;;;;;;5072195;28;20533;-41
2022/12/02 12:53:43;;;;;;;2.20;1.20;;;;;;;;;;5071815;28;20051;-41
2022/12/02 12:56:09;;;;;;;1.70;1.27;;;;;;;;;;5071951;28;20127;-41
2022/12/02 12:58:34;;;;;;;1.17;0.95;;;;;;;;;;5072295;28;20024;-41
2022/12/02 13:01:00;;;;;;;1.58;1.10;;;;;;;;;;5071853;28;20031;-41
2022/12/02 13:03:25;;;;;;;1.38;1.15;;;;;;;;;;5071856;28;20067;-42
2022/12/02 13:05:51;;;;;;;1.00;0.88;;;;;;;;;;5071829;28;20036;-41
2022/12/02 13:08:16;;;;;;;1.10;1.10;;;;;;;;;;5071966;28;20020;-41
2022/12/02 13:10:42;;;;;;;1.48;1.33;;;;;;;;;;5071555;28;20032;-41
2022/12/02 13:13:08;;;;;;;1.40;1.30;;;;;;;;;;5071659;28;20047;-41
2022/12/02 13:15:33;;;;;;;1.88;1.60;;;;;;;;;;5071961;28;20024;-41
2022/12/02 13:17:59;;;;;;;2.20;1.45;;;;;;;;;;5070356;28;20056;-41
2022/12/02 13:20:24;;;;;;;2.08;1.42;;;;;;;;;;5071995;28;20017;-41
2022/12/02 13:22:50;;;;;;;1.85;1.35;;;;;;;;;;5071535;28;20036;-41
2022/12/02 13:25:15;;;;;;;1.17;1.08;;;;;;;;;;5071477;28;20037;-41
2022/12/02 13:27:41;;;;;;;3.28;1.40;;;;;;;;;;5071857;28;20115;-41
2022/12/02 13:30:07;;;;;;;1.20;1.10;;;;;;;;;;5071655;28;20024;-41
2022/12/02 13:32:33;;;;;;;2.78;1.45;;;;;;;;;;5070308;28;20532;-41
2022/12/02 13:34:58;;;;;;;2.95;1.23;;;;;;;;;;5071400;28;20111;-41
2022/12/02 13:37:24;;;;;;;1.50;1.40;;;;;;;;;;5071711;28;20032;-41
2022/12/02 13:39:49;;;;;;;2.53;1.40;;;;;;;;;;5071428;28;20017;-42
2022/12/02 13:42:15;;;;;;;3.38;1.35;;;;;;;;;;5071656;28;20169;-42
2022/12/02 13:44:40;;;;;;;1.45;1.35;;;;;;;;;;5071592;28;20119;-41
2022/12/02 13:47:06;;;;;;;2.88;1.15;;;;;;;;;;5071196;28;20032;-41
2022/12/02 13:49:32;;;;;;;2.45;1.30;;;;;;;;;;5071409;28;20028;-41
2022/12/02 13:51:57;;;;;;;2.53;1.85;;;;;;;;;;5071094;28;20032;-41
2022/12/02 13:54:23;;;;;;;1.73;1.42;;;;;;;;;;5069892;28;20102;-41
2022/12/02 13:56:48;;;;;;;3.08;1.40;;;;;;;;;;5071375;28;20029;-41
2022/12/02 13:59:14;;;;;;;2.80;1.38;;;;;;;;;;5071128;28;20032;-41
2022/12/02 14:01:39;;;;;;;2.75;1.77;;;;;;;;;;5071260;28;20029;-41
2022/12/02 14:04:05;;;;;;;1.40;1.05;;;;;;;;;;5071110;28;20107;-41
2022/12/02 14:06:30;;;;;;;1.65;1.55;;;;;;;;;;5071165;28;20608;-41
2022/12/02 14:08:56;;;;;;;3.83;1.40;;;;;;;;;;5071142;28;20513;-41
2022/12/02 14:11:22;;;;;;;1.88;1.45;;;;;;;;;;5071075;28;20056;-41
2022/12/02 14:13:47;;;;;;;2.20;1.30;;;;;;;;;;5071363;28;20043;-41
2022/12/02 14:16:13;;;;;;;1.45;1.35;;;;;;;;;;5071332;28;20037;-42
2022/12/02 14:18:39;;;;;;;2.22;1.58;;;;;;;;;;5071118;28;20430;-41
2022/12/02 14:21:05;;;;;;;5.07;1.30;;;;;;;;;;5072006;28;20036;-41
2022/12/02 14:23:31;;;;;;;1.23;1.05;;;;;;;;;;5075206;28;20024;-41
2022/12/02 14:25:56;;;;;;;1.58;1.48;;;;;;;;;;5074776;28;20382;-41
2022/12/02 14:28:22;;;;;;;1.33;1.23;;;;;;;;;;5074941;28;20027;-41
2022/12/02 14:30:48;;;;;;;1.65;1.55;;;;;;;;;;5074958;28;20167;-41
2022/12/02 14:33:14;;;;;;;2.78;1.50;;;;;;;;;;5074628;28;20545;-41
2022/12/02 14:35:40;;;;;;;1.77;1.13;;;;;;;;;;5074783;28;20025;-41
2022/12/02 14:38:05;;;;;;;2.33;1.52;;;;;;;;;;5074633;28;20532;-41
2022/12/02 14:40:31;;;;;;;3.03;1.60;;;;;;;;;;5074943;28;20035;-41
2022/12/02 14:42:56;;;;;;;1.25;1.10;;;;;;;;;;5074404;28;20108;-41
2022/12/02 14:45:22;;;;;;;3.67;2.45;;;;;;;;;;5074538;28;20033;-41
2022/12/02 14:47:47;;;;;;;2.75;1.75;;;;;;;;;;5074615;28;20411;-41
2022/12/02 14:50:13;;;;;;;1.63;1.20;;;;;;;;;;5074574;28;20387;-41